Time;durP1;ratioP1;P1;durP2;ratioP2;P2;SDS_P1;SDS_P2;PMS_P1;PMS_P2;Temp;Humidity;BMP_temperature;BMP_pressure;BME280_temperature;BME280_humidity;BME280_pressure;Samples;Min_cycle;Max_cycle;Signal;HPM_P1;HPM_P2
2022/07/11 00:02:10;;;;;;;2.67;1.42;;;18.00;99.90;;;;;;5055560;28;20221;-85
2022/07/11 00:04:37;;;;;;;3.13;1.17;;;18.00;99.90;;;;;;5054222;28;20590;-85
2022/07/11 00:07:04;;;;;;;5.00;1.23;;;17.90;99.90;;;;;;5055060;28;20190;-85
2022/07/11 00:09:32;;;;;;;5.00;1.60;;;17.90;99.90;;;;;;5055590;28;20198;-85
2022/07/11 00:12:00;;;;;;;3.00;1.38;;;17.90;99.90;;;;;;5054256;28;20208;-84
2022/07/11 00:14:29;;;;;;;3.20;1.50;;;17.90;99.90;;;;;;5054515;28;20218;-85
2022/07/11 00:16:56;;;;;;;3.20;1.00;;;18.00;99.90;;;;;;5054876;28;20613;-85
2022/07/11 00:19:23;;;;;;;2.83;1.10;;;17.90;99.90;;;;;;5054848;28;20202;-84
2022/07/11 00:21:51;;;;;;;6.72;2.17;;;17.90;99.90;;;;;;5055063;28;20210;-85
2022/07/11 00:24:19;;;;;;;8.00;1.88;;;18.00;99.90;;;;;;5054706;28;20276;-84
2022/07/11 00:26:47;;;;;;;4.15;1.63;;;18.00;99.90;;;;;;5053689;28;20205;-84
2022/07/11 00:29:14;;;;;;;1.98;1.15;;;18.00;99.90;;;;;;5054728;28;20209;-84
2022/07/11 00:31:43;;;;;;;2.53;1.15;;;18.00;99.90;;;;;;5034524;28;20209;-85
2022/07/11 00:34:10;;;;;;;5.65;1.80;;;18.00;99.90;;;;;;5041094;28;20312;-83
2022/07/11 00:36:37;;;;;;;2.85;1.23;;;18.00;99.90;;;;;;5055078;28;20229;-84
2022/07/11 00:39:05;;;;;;;2.28;1.05;;;18.00;99.90;;;;;;5054727;28;20204;-82
2022/07/11 00:41:32;;;;;;;5.80;1.60;;;17.90;99.90;;;;;;5053437;28;20206;-83
2022/07/11 00:44:01;;;;;;;2.80;1.02;;;18.00;99.90;;;;;;5054546;28;20220;-84
2022/07/11 00:46:29;;;;;;;5.22;1.45;;;17.90;99.90;;;;;;5053523;28;20201;-82
2022/07/11 00:48:59;;;;;;;4.20;1.40;;;17.90;99.90;;;;;;5034527;28;20208;-81
2022/07/11 00:51:27;;;;;;;2.80;1.30;;;17.80;99.90;;;;;;5034443;28;20199;-84
2022/07/11 00:53:56;;;;;;;3.38;1.45;;;17.80;99.90;;;;;;5034116;28;20618;-84
2022/07/11 00:56:25;;;;;;;2.78;1.70;;;17.80;99.90;;;;;;5034593;28;20543;-84
2022/07/11 00:58:53;;;;;;;4.13;1.42;;;17.80;99.90;;;;;;5034346;28;20509;-84
2022/07/11 01:01:20;;;;;;;3.45;1.60;;;17.80;99.90;;;;;;5050323;28;20202;-87
2022/07/11 01:03:47;;;;;;;3.83;1.60;;;17.80;99.90;;;;;;5053297;28;20202;-86
2022/07/11 01:06:15;;;;;;;3.83;1.60;;;17.80;99.90;;;;;;5051935;28;20215;-85
2022/07/11 01:08:44;;;;;;;4.97;1.77;;;17.80;99.90;;;;;;5054213;28;20217;-84
2022/07/11 01:11:15;;;;;;;3.42;1.20;;;17.80;99.90;;;;;;5053036;28;20288;-84
2022/07/11 01:13:42;;;;;;;3.35;1.75;;;17.80;99.90;;;;;;5054344;28;20225;-83
2022/07/11 01:16:14;;;;;;;5.85;1.73;;;17.80;99.90;;;;;;5053718;28;20198;-86
2022/07/11 01:18:43;;;;;;;3.30;1.42;;;17.80;99.90;;;;;;5054055;28;20202;-84
2022/07/11 01:21:29;;;;;;;5.35;2.08;;;17.80;99.90;;;;;;5054235;28;20205;-85
2022/07/11 01:23:59;;;;;;;4.68;1.60;;;17.70;99.90;;;;;;5054256;28;20198;-83
2022/07/11 01:26:27;;;;;;;1.65;1.50;;;17.70;99.90;;;;;;5053617;28;20198;-85
2022/07/11 01:28:57;;;;;;;2.38;1.50;;;17.70;99.90;;;;;;5054244;28;20595;-85
2022/07/11 01:31:25;;;;;;;3.78;1.60;;;17.70;99.90;;;;;;5042769;28;20479;-86
2022/07/11 01:33:52;;;;;;;5.43;1.92;;;17.70;99.90;;;;;;5034485;28;20651;-84
2022/07/11 01:36:19;;;;;;;4.40;1.65;;;17.70;99.90;;;;;;5034179;28;20203;-85
2022/07/11 01:38:46;;;;;;;2.33;1.90;;;17.70;99.90;;;;;;5048423;28;20232;-86
2022/07/11 01:41:14;;;;;;;2.55;1.50;;;17.80;99.90;;;;;;5053181;28;20565;-86
2022/07/11 01:43:41;;;;;;;7.25;1.42;;;17.70;99.90;;;;;;5053825;28;20222;-85
2022/07/11 01:46:08;;;;;;;6.85;1.92;;;17.70;99.90;;;;;;5053969;28;20276;-86
2022/07/11 01:48:35;;;;;;;3.17;1.52;;;17.80;99.90;;;;;;5053922;28;20482;-85
2022/07/11 01:51:02;;;;;;;4.53;2.13;;;17.80;99.90;;;;;;5053783;28;20783;-82
2022/07/11 01:53:28;;;;;;;3.92;1.83;;;17.70;99.90;;;;;;5044921;28;20221;-85
2022/07/11 01:55:55;;;;;;;5.93;1.88;;;17.70;99.90;;;;;;5034061;28;20277;-83
2022/07/11 01:58:24;;;;;;;4.47;1.83;;;17.70;99.90;;;;;;5033603;28;20515;-84
2022/07/11 02:00:50;;;;;;;7.88;2.05;;;17.70;99.90;;;;;;5033817;28;20281;-85
2022/07/11 02:03:17;;;;;;;4.05;1.80;;;17.60;99.90;;;;;;5048620;28;20213;-85
2022/07/11 02:05:45;;;;;;;4.78;2.10;;;17.60;99.90;;;;;;5053103;28;20194;-83
2022/07/11 02:08:12;;;;;;;5.07;1.90;;;17.60;99.90;;;;;;5055182;28;20202;-82
2022/07/11 02:10:40;;;;;;;5.18;2.22;;;17.60;99.90;;;;;;5055963;28;20198;-83
2022/07/11 02:13:08;;;;;;;4.68;1.77;;;17.60;99.90;;;;;;5056752;28;20260;-85
2022/07/11 02:15:37;;;;;;;4.15;2.25;;;17.70;99.90;;;;;;5045987;28;20210;-83
2022/07/11 02:18:04;;;;;;;4.28;2.00;;;17.70;99.90;;;;;;5036774;28;20254;-84
2022/07/11 02:20:31;;;;;;;3.70;1.80;;;17.60;99.90;;;;;;5036905;28;20286;-83
2022/07/11 02:22:58;;;;;;;3.90;1.60;;;17.60;99.90;;;;;;5044419;28;20288;-83
2022/07/11 02:25:25;;;;;;;3.30;1.70;;;17.60;99.90;;;;;;5057185;28;20230;-84
2022/07/11 02:27:52;;;;;;;4.40;1.75;;;17.60;99.90;;;;;;5057017;28;20202;-84
2022/07/11 02:30:19;;;;;;;5.43;2.03;;;17.60;99.90;;;;;;5056475;28;20281;-84
2022/07/11 02:32:47;;;;;;;2.33;1.45;;;17.60;99.90;;;;;;5056500;28;20205;-83
2022/07/11 02:35:14;;;;;;;4.40;1.83;;;17.60;99.90;;;;;;5056176;28;20289;-86
2022/07/11 02:37:41;;;;;;;5.00;2.00;;;17.60;99.90;;;;;;5037199;28;20278;-84
2022/07/11 02:40:08;;;;;;;3.72;2.00;;;17.60;99.90;;;;;;5036728;28;20199;-86
2022/07/11 02:42:35;;;;;;;2.65;1.70;;;17.60;99.90;;;;;;5055307;28;20289;-87
2022/07/11 02:45:02;;;;;;;2.33;1.80;;;17.60;99.90;;;;;;5056630;28;20532;-86
2022/07/11 02:47:29;;;;;;;3.13;1.90;;;17.60;99.90;;;;;;5055822;28;20586;-86
2022/07/11 02:49:57;;;;;;;2.33;1.55;;;17.60;99.90;;;;;;5056972;28;20202;-87
2022/07/11 02:52:24;;;;;;;2.05;1.85;;;17.60;99.90;;;;;;5056898;28;20216;-86
2022/07/11 02:54:51;;;;;;;3.00;1.92;;;17.60;99.90;;;;;;5055579;28;20240;-86
2022/07/11 02:57:18;;;;;;;3.22;1.60;;;17.60;99.90;;;;;;5057005;28;20205;-86
2022/07/11 02:59:45;;;;;;;3.55;1.73;;;17.60;99.90;;;;;;5037912;28;20226;-86
2022/07/11 03:02:11;;;;;;;3.28;1.48;;;17.60;99.90;;;;;;5036567;28;20197;-87
2022/07/11 03:04:39;;;;;;;3.03;1.73;;;17.60;99.90;;;;;;5038606;28;20195;-85
2022/07/11 03:07:07;;;;;;;4.10;1.55;;;17.60;99.90;;;;;;5056305;28;20550;-84
2022/07/11 03:09:34;;;;;;;3.15;1.30;;;17.60;99.90;;;;;;5056616;28;20205;-84
2022/07/11 03:12:01;;;;;;;2.05;1.50;;;17.60;99.90;;;;;;5055426;28;20232;-86
2022/07/11 03:14:28;;;;;;;2.13;1.30;;;17.60;99.90;;;;;;5056369;28;20653;-86
2022/07/11 03:16:55;;;;;;;3.40;1.27;;;17.60;99.90;;;;;;5056262;28;20729;-84
2022/07/11 03:19:22;;;;;;;3.10;1.30;;;17.60;99.90;;;;;;5055618;28;20194;-85
2022/07/11 03:21:49;;;;;;;1.75;1.27;;;17.60;99.90;;;;;;5056250;28;20204;-86
2022/07/11 03:24:17;;;;;;;3.00;1.30;;;17.60;99.90;;;;;;5056053;28;20202;-87
2022/07/11 03:26:44;;;;;;;2.28;1.27;;;17.60;99.90;;;;;;5056340;28;20255;-86
2022/07/11 03:29:11;;;;;;;5.00;1.40;;;17.60;99.90;;;;;;5056152;28;20206;-86
2022/07/11 03:31:38;;;;;;;4.20;1.20;;;17.50;99.90;;;;;;5055785;28;20292;-83
2022/07/11 03:34:05;;;;;;;2.33;1.30;;;17.60;99.90;;;;;;5056405;28;20253;-86
2022/07/11 03:36:32;;;;;;;2.08;1.48;;;17.50;99.90;;;;;;5057727;28;20225;-85
2022/07/11 03:38:59;;;;;;;2.97;1.88;;;17.50;99.90;;;;;;5056137;28;20298;-87
2022/07/11 03:41:27;;;;;;;2.58;1.45;;;17.50;99.90;;;;;;5056415;28;20313;-86
2022/07/11 03:43:56;;;;;;;2.10;1.42;;;17.40;99.90;;;;;;5056267;28;20225;-86
2022/07/11 03:46:23;;;;;;;3.78;1.50;;;17.50;99.90;;;;;;5058369;28;20220;-84
2022/07/11 03:48:50;;;;;;;4.47;1.40;;;17.50;99.90;;;;;;5064511;28;20202;-86
2022/07/11 03:51:17;;;;;;;1.67;1.30;;;17.50;99.90;;;;;;5060486;28;20205;-85
2022/07/11 03:53:44;;;;;;;3.53;1.60;;;17.50;99.90;;;;;;5058696;28;20268;-86
2022/07/11 03:56:11;;;;;;;2.47;1.58;;;17.50;99.90;;;;;;5057704;28;20229;-87
2022/07/11 03:58:40;;;;;;;2.75;1.60;;;17.40;99.90;;;;;;5057452;28;20189;-86
2022/07/11 04:01:07;;;;;;;1.42;1.30;;;17.40;99.90;;;;;;5059060;28;20602;-85
2022/07/11 04:03:34;;;;;;;1.88;1.30;;;17.40;99.90;;;;;;5057959;28;20190;-86
2022/07/11 04:06:01;;;;;;;1.55;1.10;;;17.40;99.90;;;;;;5056054;28;20249;-85
2022/07/11 04:08:28;;;;;;;3.30;1.58;;;17.40;99.90;;;;;;5055761;28;20210;-83
2022/07/11 04:10:55;;;;;;;2.42;1.58;;;17.40;99.90;;;;;;5055522;28;20297;-85
2022/07/11 04:13:22;;;;;;;4.53;2.10;;;17.40;99.90;;;;;;5055225;28;20500;-85
2022/07/11 04:15:50;;;;;;;2.38;1.75;;;17.30;99.90;;;;;;5035711;28;20203;-84
2022/07/11 04:18:17;;;;;;;2.53;1.75;;;17.40;99.90;;;;;;5034446;28;20272;-85
2022/07/11 04:20:44;;;;;;;2.90;2.60;;;17.40;99.90;;;;;;5041539;28;20289;-86
2022/07/11 04:23:11;;;;;;;3.22;2.05;;;17.40;99.90;;;;;;5049316;28;20205;-85
2022/07/11 04:25:38;;;;;;;1.92;1.73;;;17.40;99.90;;;;;;5040652;28;20210;-85
2022/07/11 04:28:05;;;;;;;3.45;1.77;;;17.40;99.90;;;;;;5035912;28;20191;-85
2022/07/11 04:30:32;;;;;;;1.70;1.60;;;17.30;99.90;;;;;;5055275;28;20202;-83
2022/07/11 04:33:01;;;;;;;2.95;1.60;;;17.30;99.90;;;;;;5055476;28;20197;-85
2022/07/11 04:35:30;;;;;;;2.63;1.90;;;17.30;99.90;;;;;;5056019;28;20262;-85
2022/07/11 04:37:57;;;;;;;2.67;1.92;;;17.30;99.90;;;;;;5054274;28;20256;-82
2022/07/11 04:40:24;;;;;;;4.55;2.38;;;17.30;99.90;;;;;;5053891;28;20233;-85
2022/07/11 04:42:52;;;;;;;3.85;2.20;;;17.40;99.90;;;;;;5054839;28;20194;-84
2022/07/11 04:45:19;;;;;;;3.25;1.63;;;17.40;99.90;;;;;;5054375;28;20202;-86
2022/07/11 04:47:46;;;;;;;4.53;1.83;;;17.40;99.90;;;;;;5054978;28;20276;-84
2022/07/11 04:50:14;;;;;;;2.55;1.90;;;17.40;99.90;;;;;;5055265;28;20194;-84
2022/07/11 04:52:42;;;;;;;1.92;1.60;;;17.30;99.90;;;;;;5054081;28;20221;-89
2022/07/11 04:55:09;;;;;;;3.45;1.65;;;17.40;99.90;;;;;;5054629;28;20304;-84
2022/07/11 04:57:36;;;;;;;2.72;1.40;;;17.40;99.90;;;;;;5054822;28;20194;-84
2022/07/11 05:00:05;;;;;;;1.70;1.60;;;17.40;99.90;;;;;;5037800;28;20198;-84
2022/07/11 05:02:32;;;;;;;2.70;1.40;;;17.40;99.90;;;;;;5034698;28;20237;-85
2022/07/11 05:04:59;;;;;;;1.70;1.40;;;17.40;99.90;;;;;;5034603;28;20202;-85
2022/07/11 05:07:27;;;;;;;3.00;1.52;;;17.40;99.90;;;;;;5034802;28;20194;-87
2022/07/11 05:09:54;;;;;;;3.55;1.80;;;17.40;99.90;;;;;;5035194;28;20198;-88
2022/07/11 05:12:21;;;;;;;2.80;2.08;;;17.40;99.90;;;;;;5035041;28;20212;-88
2022/07/11 05:14:49;;;;;;;4.20;1.85;;;17.50;99.90;;;;;;5034596;28;20230;-86
2022/07/11 05:17:16;;;;;;;3.28;1.50;;;17.50;99.90;;;;;;5034602;28;20271;-82
2022/07/11 05:19:42;;;;;;;2.75;1.58;;;17.50;99.90;;;;;;5034824;28;20213;-86
2022/07/11 05:22:10;;;;;;;3.20;1.80;;;17.50;99.90;;;;;;5034309;28;20230;-88
2022/07/11 05:24:38;;;;;;;2.55;1.90;;;17.50;99.90;;;;;;5046460;28;20557;-85
2022/07/11 05:27:06;;;;;;;2.33;1.75;;;17.50;99.90;;;;;;5054608;28;20270;-85
2022/07/11 05:29:32;;;;;;;1.33;1.23;;;17.50;99.90;;;;;;5054791;28;20608;-85
2022/07/11 05:31:59;;;;;;;1.98;1.17;;;17.50;99.90;;;;;;5053327;28;20581;-85
2022/07/11 05:34:26;;;;;;;4.40;1.60;;;17.40;99.90;;;;;;5034751;28;20583;-86
2022/07/11 05:36:53;;;;;;;3.08;1.52;;;17.40;99.90;;;;;;5034325;28;20199;-86
2022/07/11 05:39:20;;;;;;;2.80;1.50;;;17.40;99.90;;;;;;5034452;28;20719;-86
2022/07/11 05:41:51;;;;;;;3.70;1.52;;;17.40;99.90;;;;;;5033691;28;20226;-86
2022/07/11 05:44:18;;;;;;;2.88;1.80;;;17.40;99.90;;;;;;5037999;28;20250;-87
2022/07/11 05:46:45;;;;;;;1.92;1.80;;;17.40;99.90;;;;;;5038470;28;20305;-86
2022/07/11 05:49:13;;;;;;;4.70;1.90;;;17.40;99.90;;;;;;5037853;28;20618;-83
2022/07/11 05:51:41;;;;;;;2.03;1.83;;;17.50;99.90;;;;;;5038231;28;20610;-87
2022/07/11 05:54:08;;;;;;;2.50;2.00;;;17.40;99.90;;;;;;5038000;28;20227;-84
2022/07/11 05:56:35;;;;;;;3.30;2.15;;;17.50;99.90;;;;;;5038522;28;20198;-84
2022/07/11 05:59:03;;;;;;;5.20;2.47;;;17.50;99.90;;;;;;5057828;28;20201;-86
2022/07/11 06:01:31;;;;;;;3.42;1.80;;;17.50;99.90;;;;;;5057843;28;20297;-88
2022/07/11 06:03:59;;;;;;;2.03;1.83;;;17.50;99.90;;;;;;5057144;28;20306;-88
2022/07/11 06:06:26;;;;;;;3.60;2.67;;;17.50;99.90;;;;;;5057841;28;20200;-88
2022/07/11 06:08:54;;;;;;;5.38;2.78;;;17.50;99.90;;;;;;5041667;28;20207;-85
2022/07/11 06:11:21;;;;;;;2.05;1.85;;;17.60;99.90;;;;;;5037637;28;20289;-88
2022/07/11 06:13:49;;;;;;;1.92;1.35;;;17.60;99.90;;;;;;5038119;28;20207;-90
2022/07/11 06:16:18;;;;;;;1.95;1.27;;;17.60;99.90;;;;;;5038419;28;20321;-88
2022/07/11 06:18:46;;;;;;;3.35;1.75;;;17.60;99.90;;;;;;5037622;28;20213;-89
2022/07/11 06:21:13;;;;;;;1.30;1.20;;;17.50;99.90;;;;;;5037764;28;20203;-87
2022/07/11 06:23:40;;;;;;;1.33;1.23;;;17.50;99.90;;;;;;5037976;28;20285;-88
2022/07/11 06:26:07;;;;;;;1.70;1.58;;;17.50;99.90;;;;;;5054381;28;20293;-88
2022/07/11 06:28:34;;;;;;;1.58;1.30;;;17.50;99.90;;;;;;5057582;28;20194;-89
2022/07/11 06:31:01;;;;;;;1.27;1.10;;;17.50;99.90;;;;;;5043888;28;20212;-89
2022/07/11 06:33:30;;;;;;;2.85;1.40;;;17.50;99.90;;;;;;5037677;28;20203;-88
2022/07/11 06:35:57;;;;;;;2.55;1.50;;;17.60;99.90;;;;;;5052916;28;20638;-88
2022/07/11 06:38:24;;;;;;;1.48;1.38;;;17.60;99.90;;;;;;5055999;28;20254;-86
2022/07/11 06:40:53;;;;;;;1.60;1.30;;;17.70;99.90;;;;;;5054866;28;20567;-83
2022/07/11 06:43:20;;;;;;;2.17;1.52;;;17.60;99.90;;;;;;5050591;28;20317;-83
2022/07/11 06:45:48;;;;;;;1.48;1.00;;;17.70;99.90;;;;;;5035971;28;20205;-82
2022/07/11 06:48:15;;;;;;;1.40;0.95;;;17.70;99.90;;;;;;5050210;28;20194;-85
2022/07/11 06:50:43;;;;;;;1.50;0.98;;;17.80;99.90;;;;;;5043384;28;20201;-83
2022/07/11 06:53:10;;;;;;;1.38;1.10;;;17.80;99.90;;;;;;5048991;28;20195;-85
2022/07/11 06:55:37;;;;;;;1.13;1.02;;;17.80;99.90;;;;;;5048387;28;20214;-88
2022/07/11 06:58:05;;;;;;;1.55;0.88;;;17.80;99.90;;;;;;5043840;28;20194;-82
2022/07/11 07:00:32;;;;;;;2.40;1.35;;;17.90;99.90;;;;;;5036701;28;20289;-83
2022/07/11 07:02:59;;;;;;;3.35;1.20;;;17.90;99.90;;;;;;5056079;28;20206;-83
2022/07/11 07:05:26;;;;;;;1.75;0.80;;;18.00;99.90;;;;;;5056081;28;20209;-82
2022/07/11 07:07:55;;;;;;;0.90;0.77;;;18.00;99.90;;;;;;5055049;28;20596;-82
2022/07/11 07:10:22;;;;;;;1.02;0.70;;;18.00;99.90;;;;;;5056098;28;20206;-82
2022/07/11 07:12:48;;;;;;;2.35;1.00;;;18.00;99.90;;;;;;5054872;28;20395;-83
2022/07/11 07:15:15;;;;;;;3.17;0.95;;;18.00;99.90;;;;;;5035224;28;20302;-84
2022/07/11 07:17:42;;;;;;;1.77;0.90;;;18.10;99.90;;;;;;5035873;28;20252;-83
2022/07/11 07:20:11;;;;;;;0.90;0.90;;;18.20;99.90;;;;;;5046217;28;20224;-83
2022/07/11 07:22:38;;;;;;;1.35;0.70;;;18.30;99.90;;;;;;5055502;28;20210;-84
2022/07/11 07:25:09;;;;;;;1.05;0.82;;;18.40;99.90;;;;;;5036857;28;20198;-84
2022/07/11 07:27:36;;;;;;;0.98;0.85;;;18.40;99.90;;;;;;5035459;28;20207;-85
2022/07/11 07:30:04;;;;;;;0.93;0.60;;;18.60;99.90;;;;;;5035894;28;20202;-84
2022/07/11 07:32:31;;;;;;;1.13;0.60;;;18.90;99.90;;;;;;5035803;28;20209;-86
2022/07/11 07:34:58;;;;;;;1.48;0.70;;;19.40;99.90;;;;;;5035793;28;20223;-85
2022/07/11 07:37:25;;;;;;;0.40;0.40;;;19.80;99.90;;;;;;5049393;28;20590;-86
2022/07/11 07:39:52;;;;;;;0.60;0.40;;;20.10;99.90;;;;;;5056164;28;20255;-85
2022/07/11 07:42:20;;;;;;;0.75;0.70;;;20.30;99.90;;;;;;5055957;28;20202;-85
2022/07/11 07:44:47;;;;;;;0.50;0.50;;;20.30;99.90;;;;;;5055846;28;20293;-84
2022/07/11 07:47:14;;;;;;;0.68;0.65;;;20.20;99.90;;;;;;5045923;28;20217;-88
2022/07/11 07:49:41;;;;;;;1.60;0.60;;;20.20;99.90;;;;;;5035702;28;20199;-85
2022/07/11 07:52:09;;;;;;;1.30;0.60;;;20.00;99.90;;;;;;5044133;28;20203;-87
2022/07/11 07:54:36;;;;;;;0.52;0.50;;;19.90;99.90;;;;;;5054655;28;20609;-88
2022/07/11 07:57:03;;;;;;;1.38;0.57;;;19.90;99.90;;;;;;5056961;28;20301;-88
2022/07/11 07:59:31;;;;;;;1.98;0.50;;;19.90;99.90;;;;;;5063274;28;20343;-84
2022/07/11 08:01:57;;;;;;;1.23;0.50;;;20.10;99.90;;;;;;5063579;28;20216;-87
2022/07/11 08:04:24;;;;;;;0.47;0.47;;;20.30;99.90;;;;;;5057872;28;20202;-83
2022/07/11 08:06:51;;;;;;;1.02;0.40;;;20.40;99.90;;;;;;5057974;28;20570;-87
2022/07/11 08:09:18;;;;;;;2.13;0.40;;;20.30;99.90;;;;;;5057439;28;20233;-85
2022/07/11 08:11:45;;;;;;;1.25;0.50;;;20.30;99.90;;;;;;5063367;28;20229;-86
2022/07/11 08:14:12;;;;;;;1.55;0.80;;;20.20;99.90;;;;;;5060206;28;20767;-86
2022/07/11 08:16:41;;;;;;;0.60;0.60;;;20.10;99.90;;;;;;5059048;28;20244;-85
2022/07/11 08:19:08;;;;;;;0.77;0.50;;;20.00;99.90;;;;;;5059846;28;20215;-84
2022/07/11 08:21:36;;;;;;;0.65;0.60;;;20.00;99.90;;;;;;5054021;28;20213;-83
2022/07/11 08:24:03;;;;;;;1.58;0.70;;;19.90;99.90;;;;;;5060944;28;20210;-84
2022/07/11 08:26:30;;;;;;;2.05;0.70;;;19.90;99.90;;;;;;5074660;28;20213;-85
2022/07/11 08:28:57;;;;;;;1.00;0.60;;;19.90;99.90;;;;;;5066688;28;20204;-84
2022/07/11 08:31:24;;;;;;;0.75;0.70;;;20.00;99.90;;;;;;5053382;28;20248;-88
2022/07/11 08:33:53;;;;;;;1.40;0.80;;;20.00;99.90;;;;;;5048942;28;20273;-84
2022/07/11 08:36:21;;;;;;;2.75;0.88;;;20.00;99.90;;;;;;5054010;28;20222;-84
2022/07/11 08:38:48;;;;;;;1.50;0.85;;;19.90;99.90;;;;;;5044474;28;20205;-85
2022/07/11 08:41:18;;;;;;;0.75;0.70;;;19.90;99.90;;;;;;5054275;28;20202;-85
2022/07/11 08:43:46;;;;;;;0.90;0.73;;;19.90;99.90;;;;;;5054736;28;20221;-81
2022/07/11 08:46:15;;;;;;;1.23;0.75;;;20.00;99.90;;;;;;5053678;28;20194;-87
2022/07/11 08:48:42;;;;;;;2.35;0.70;;;20.00;99.90;;;;;;5045295;28;20195;-85
2022/07/11 08:51:12;;;;;;;0.70;0.52;;;20.00;99.90;;;;;;5035146;28;20293;-85
2022/07/11 08:53:42;;;;;;;1.92;0.65;;;20.10;99.90;;;;;;5035151;28;20256;-85
2022/07/11 08:56:17;;;;;;;2.22;0.60;;;20.40;99.90;;;;;;5051656;28;20267;-89
2022/07/11 08:58:47;;;;;;;0.98;0.68;;;20.50;99.90;;;;;;5054869;28;20216;-84
2022/07/11 09:01:17;;;;;;;1.05;0.50;;;20.50;99.90;;;;;;5038279;28;20539;-87
2022/07/11 09:03:44;;;;;;;0.40;0.40;;;20.50;76.50;;;;;;5034837;28;20282;-85
2022/07/11 09:06:13;;;;;;;0.75;0.60;;;20.50;1.00;;;;;;5046748;28;20209;-84
2022/07/11 09:08:40;;;;;;;0.50;0.47;;;20.50;1.00;;;;;;5055012;28;20284;-85
2022/07/11 09:11:07;;;;;;;1.10;0.40;;;20.40;1.00;;;;;;5053396;28;20560;-85
2022/07/11 09:13:34;;;;;;;0.80;0.50;;;20.30;1.00;;;;;;5052878;28;20200;-85
2022/07/11 09:16:06;;;;;;;0.80;0.40;;;20.30;1.00;;;;;;5054325;28;20296;-85
2022/07/11 09:18:35;;;;;;;0.70;0.60;;;20.40;1.00;;;;;;5058474;28;20235;-83
2022/07/11 09:26:38;;;;;;;0.57;0.55;;;20.70;1.00;;;;;;5038505;28;20328;-83
2022/07/11 09:29:08;;;;;;;1.90;0.50;;;20.70;1.00;;;;;;5038120;28;20210;-84
2022/07/11 09:31:37;;;;;;;0.70;0.45;;;20.80;1.00;;;;;;5038294;28;20242;-85
2022/07/11 09:34:08;;;;;;;0.63;0.30;;;20.80;1.00;;;;;;5057468;28;20213;-84
2022/07/11 09:36:43;;;;;;;0.45;0.45;;;20.90;1.00;;;;;;5057446;28;20226;-85
2022/07/11 09:39:15;;;;;;;1.60;0.50;;;21.00;1.00;;;;;;5038259;28;20345;-85
2022/07/11 09:41:42;;;;;;;0.63;0.50;;;21.10;1.00;;;;;;5037687;28;20222;-84
2022/07/11 09:44:14;;;;;;;0.40;0.40;;;21.10;1.00;;;;;;5038628;28;20210;-84
2022/07/11 09:46:41;;;;;;;0.50;0.47;;;21.20;1.00;;;;;;5047124;28;20201;-86
2022/07/11 09:49:09;;;;;;;0.93;0.40;;;21.30;1.00;;;;;;5057837;28;20194;-85
2022/07/11 09:51:37;;;;;;;2.45;0.60;;;21.40;1.00;;;;;;5057917;28;20206;-85
2022/07/11 09:54:05;;;;;;;0.40;0.40;;;21.30;1.00;;;;;;5058132;28;20198;-85
2022/07/11 09:56:40;;;;;;;2.15;0.60;;;21.40;1.00;;;;;;5048406;28;20234;-85
2022/07/11 09:59:09;;;;;;;1.13;0.75;;;21.40;1.00;;;;;;5057297;28;20186;-85
2022/07/11 10:01:36;;;;;;;0.60;0.60;;;21.40;1.00;;;;;;5057167;28;20212;-88
2022/07/11 10:04:05;;;;;;;0.57;0.43;;;21.50;1.00;;;;;;5059608;28;20209;-85
2022/07/11 10:06:31;;;;;;;0.63;0.60;;;21.50;1.00;;;;;;5076384;28;20496;-86
2022/07/11 10:08:58;;;;;;;1.20;0.60;;;21.40;1.00;;;;;;5054752;28;20194;-85
2022/07/11 10:11:25;;;;;;;0.45;0.40;;;21.40;1.00;;;;;;5046119;28;20194;-85
2022/07/11 10:13:54;;;;;;;0.70;0.60;;;21.40;1.00;;;;;;5049006;28;20217;-85
2022/07/11 10:16:39;;;;;;;0.77;0.60;;;21.60;1.00;;;;;;5044271;28;20680;-85
2022/07/11 10:19:20;;;;;;;0.43;0.40;;;21.70;1.00;;;;;;5039665;28;20210;-86
2022/07/11 10:21:52;;;;;;;0.40;0.40;;;21.90;1.00;;;;;;5049154;28;20298;-85
2022/07/11 10:24:35;;;;;;;0.50;0.50;;;22.10;1.00;;;;;;5051454;28;20202;-86
2022/07/11 10:27:09;;;;;;;1.92;0.50;;;22.20;1.00;;;;;;5039559;28;20273;-88
2022/07/11 10:29:43;;;;;;;0.75;0.43;;;22.30;1.00;;;;;;5051793;28;20189;-85
2022/07/11 10:32:11;;;;;;;0.40;0.40;;;22.50;1.00;;;;;;5058366;28;20209;-86
2022/07/11 10:34:39;;;;;;;0.95;0.40;;;22.60;1.00;;;;;;5058125;28;20194;-85
2022/07/11 10:37:07;;;;;;;0.77;0.60;;;22.70;1.00;;;;;;5056726;28;20218;-85
2022/07/11 10:39:37;;;;;;;0.40;0.40;;;22.70;1.00;;;;;;5057021;28;20198;-85
2022/07/11 10:42:06;;;;;;;1.75;0.60;;;22.70;1.00;;;;;;5056818;28;20217;-86
2022/07/11 10:44:56;;;;;;;0.57;0.55;;;22.80;1.00;;;;;;5056542;28;20538;-86
2022/07/11 10:47:35;;;;;;;1.23;0.60;;;23.00;99.90;;;;;;5052419;28;20281;-86
2022/07/11 10:50:08;;;;;;;0.50;0.50;;;23.00;99.90;;;;;;5055194;28;20512;-86
2022/07/11 10:52:37;;;;;;;0.82;0.60;;;23.10;99.90;;;;;;5053910;28;20197;-83
2022/07/11 10:55:20;;;;;;;0.70;0.50;;;23.10;99.90;;;;;;5040387;28;20206;-85
2022/07/11 10:58:02;;;;;;;1.10;0.50;;;23.10;99.90;;;;;;5052231;28;20218;-86
2022/07/11 11:00:32;;;;;;;0.50;0.43;;;23.10;99.90;;;;;;5061921;28;20673;-86
2022/07/11 11:03:06;;;;;;;1.63;0.45;;;23.20;99.90;;;;;;5074316;28;20280;-83
2022/07/11 11:05:47;;;;;;;1.48;0.70;;;23.40;99.90;;;;;;5035923;28;20185;-87
2022/07/11 11:08:44;;;;;;;0.75;0.43;;;23.50;99.90;;;;;;5042026;28;20198;-86
2022/07/11 11:11:38;;;;;;;1.65;0.50;;;23.60;99.90;;;;;;5053227;28;20806;-86
2022/07/11 11:14:22;;;;;;;0.47;0.45;;;23.70;1.00;;;;;;5054066;28;20273;-86
2022/07/11 11:16:51;;;;;;;0.88;0.50;;;23.60;99.90;;;;;;5045672;28;20635;-87
2022/07/11 11:19:58;;;;;;;0.50;0.50;;;23.70;99.90;;;;;;5045899;28;20202;-86
2022/07/11 11:22:25;;;;;;;0.73;0.40;;;23.80;99.90;;;;;;5044808;28;20573;-86
2022/07/11 11:24:54;;;;;;;0.55;0.55;;;23.90;99.90;;;;;;5075253;28;20231;-86
2022/07/11 11:27:23;;;;;;;1.17;0.50;;;24.10;1.00;;;;;;5068165;28;20190;-86
2022/07/11 11:29:54;;;;;;;0.40;0.40;;;24.00;1.00;;;;;;5041819;28;20206;-86
2022/07/11 11:32:28;;;;;;;0.68;0.50;;;24.10;1.00;;;;;;5037980;28;20198;-88
2022/07/11 11:34:55;;;;;;;1.02;0.50;;;24.10;1.00;;;;;;5043776;28;20296;-87
2022/07/11 11:37:22;;;;;;;4.43;0.60;;;24.10;1.00;;;;;;5041877;28;20214;-87
2022/07/11 11:39:58;;;;;;;3.17;0.68;;;24.00;1.00;;;;;;5035658;28;20218;-87
2022/07/11 11:42:25;;;;;;;0.98;0.57;;;24.00;1.00;;;;;;5053391;28;20201;-87
2022/07/11 11:44:58;;;;;;;1.50;0.57;;;24.00;1.00;;;;;;5054696;28;20230;-87
2022/07/11 11:47:30;;;;;;;2.38;0.93;;;24.00;1.00;;;;;;5053486;28;20505;-86
2022/07/11 11:49:57;;;;;;;0.60;0.60;;;24.00;1.00;;;;;;5054415;28;20207;-87
2022/07/11 11:52:25;;;;;;;1.83;0.63;;;24.20;1.00;;;;;;5043786;28;20207;-91
2022/07/11 11:54:53;;;;;;;0.95;0.60;;;24.50;1.00;;;;;;5053516;28;20593;-88
2022/07/11 11:57:23;;;;;;;3.35;0.57;;;24.40;1.00;;;;;;5053962;28;20573;-84
2022/07/11 11:59:51;;;;;;;1.50;0.50;;;24.50;1.00;;;;;;5053796;28;20236;-88
2022/07/11 12:02:27;;;;;;;1.05;0.60;;;24.70;1.00;;;;;;5053589;28;20209;-86
2022/07/11 12:04:54;;;;;;;1.75;0.57;;;25.00;99.90;;;;;;5052616;28;20293;-87
2022/07/11 12:07:27;;;;;;;0.60;0.60;;;25.00;99.90;;;;;;5053772;28;20293;-89
2022/07/11 12:09:56;;;;;;;3.25;0.43;;;25.20;99.90;;;;;;5053981;28;20213;-88
2022/07/11 12:15:27;;;;;;;1.60;0.50;;;25.70;1.00;;;;;;5053085;28;20208;-85
2022/07/11 12:18:00;;;;;;;2.17;0.60;;;25.90;99.90;;;;;;5053027;28;20321;-88
2022/07/11 12:20:40;;;;;;;1.42;0.90;;;25.80;99.90;;;;;;5036118;28;20222;-85
2022/07/11 12:23:12;;;;;;;0.88;0.50;;;25.70;99.90;;;;;;5031841;28;20209;-87
2022/07/11 12:25:39;;;;;;;3.03;0.70;;;25.70;99.90;;;;;;5032324;28;20214;-86
2022/07/11 12:28:08;;;;;;;0.60;0.50;;;25.70;1.00;;;;;;5045842;28;20233;-87
2022/07/11 12:30:35;;;;;;;1.30;0.60;;;25.80;99.90;;;;;;5051441;28;20555;-87
2022/07/11 12:33:11;;;;;;;0.82;0.50;;;25.80;1.00;;;;;;5052063;28;20220;-87
2022/07/11 12:35:57;;;;;;;0.63;0.63;;;25.90;1.00;;;;;;5052898;28;20643;-89
2022/07/11 12:38:24;;;;;;;0.82;0.70;;;25.90;1.00;;;;;;5053062;28;20229;-90
2022/07/11 12:41:05;;;;;;;0.85;0.50;;;25.60;99.90;;;;;;5053498;28;20289;-86
2022/07/11 12:46:29;;;;;;;0.98;0.82;;;25.50;99.90;;;;;;5053093;28;20208;-87
2022/07/11 12:48:59;;;;;;;0.60;0.60;;;25.40;99.90;;;;;;5053520;28;20216;-87
2022/07/11 12:51:32;;;;;;;0.80;0.77;;;25.50;1.00;;;;;;5051042;28;20253;-86
2022/07/11 12:54:04;;;;;;;1.27;0.68;;;25.50;1.00;;;;;;5047107;28;20769;-86
2022/07/11 12:56:31;;;;;;;3.22;0.90;;;25.70;1.00;;;;;;5032352;28;20313;-84
2022/07/11 12:58:58;;;;;;;0.70;0.60;;;25.80;1.00;;;;;;5031604;28;20598;-84
2022/07/11 13:01:25;;;;;;;0.93;0.80;;;26.00;99.90;;;;;;5032159;28;20716;-81
2022/07/11 13:03:52;;;;;;;1.50;0.88;;;26.10;1.00;;;;;;5036099;28;20217;-85
2022/07/11 13:08:42;;;;;;;1.27;0.90;;;26.20;99.90;;;;;;5051907;28;20221;-85
2022/07/11 13:09:08;;;;;;;2.25;1.20;;;26.30;1.00;;;;;;5053490;28;20287;-82